sensor_id;sensor_type;location;lat;lon;timestamp;temperature;humidity
18189;DHT22;9219;50.396;8.546;2022-07-12T00:00:27;18.20;99.90
18189;DHT22;9219;50.396;8.546;2022-07-12T00:02:55;18.20;99.90
18189;DHT22;9219;50.396;8.546;2022-07-12T00:15:23;18.00;99.90
18189;DHT22;9219;50.396;8.546;2022-07-12T00:17:50;18.00;99.90
18189;DHT22;9219;50.396;8.546;2022-07-12T00:20:18;18.10;99.90
18189;DHT22;9219;50.396;8.546;2022-07-12T00:22:46;18.10;99.90
18189;DHT22;9219;50.396;8.546;2022-07-12T00:25:13;18.10;99.90
18189;DHT22;9219;50.396;8.546;2022-07-12T00:27:41;18.10;99.90
18189;DHT22;9219;50.396;8.546;2022-07-12T00:30:10;18.10;99.90
18189;DHT22;9219;50.396;8.546;2022-07-12T00:38:15;18.20;99.90
18189;DHT22;9219;50.396;8.546;2022-07-12T00:40:43;18.20;99.90
18189;DHT22;9219;50.396;8.546;2022-07-12T00:43:11;18.20;99.90
18189;DHT22;9219;50.396;8.546;2022-07-12T00:45:38;18.70;99.90
18189;DHT22;9219;50.396;8.546;2022-07-12T00:48:06;18.80;99.90
18189;DHT22;9219;50.396;8.546;2022-07-12T00:50:34;18.70;99.90
18189;DHT22;9219;50.396;8.546;2022-07-12T00:53:02;18.10;99.90
18189;DHT22;9219;50.396;8.546;2022-07-12T00:58:42;17.80;99.90
18189;DHT22;9219;50.396;8.546;2022-07-12T01:01:10;17.80;99.90
18189;DHT22;9219;50.396;8.546;2022-07-12T01:03:38;18.00;99.90
18189;DHT22;9219;50.396;8.546;2022-07-12T01:06:06;18.00;99.90
18189;DHT22;9219;50.396;8.546;2022-07-12T01:08:35;17.80;99.90
18189;DHT22;9219;50.396;8.546;2022-07-12T01:11:03;17.90;99.90
18189;DHT22;9219;50.396;8.546;2022-07-12T01:13:31;18.00;99.90
18189;DHT22;9219;50.396;8.546;2022-07-12T01:15:59;18.10;99.90
18189;DHT22;9219;50.396;8.546;2022-07-12T01:18:55;18.20;99.90
18189;DHT22;9219;50.396;8.546;2022-07-12T01:21:23;18.20;99.90
18189;DHT22;9219;50.396;8.546;2022-07-12T01:23:55;18.30;99.90
18189;DHT22;9219;50.396;8.546;2022-07-12T01:26:23;18.10;99.90
18189;DHT22;9219;50.396;8.546;2022-07-12T01:28:51;18.20;99.90
18189;DHT22;9219;50.396;8.546;2022-07-12T01:31:20;18.10;99.90
18189;DHT22;9219;50.396;8.546;2022-07-12T01:33:47;18.30;99.90
18189;DHT22;9219;50.396;8.546;2022-07-12T01:36:15;18.30;99.90
18189;DHT22;9219;50.396;8.546;2022-07-12T01:41:52;18.20;99.90
18189;DHT22;9219;50.396;8.546;2022-07-12T01:44:20;18.10;99.90
18189;DHT22;9219;50.396;8.546;2022-07-12T01:46:47;18.20;99.90
18189;DHT22;9219;50.396;8.546;2022-07-12T01:49:15;18.20;99.90
18189;DHT22;9219;50.396;8.546;2022-07-12T01:51:43;18.00;99.90
18189;DHT22;9219;50.396;8.546;2022-07-12T01:54:11;17.90;99.90
18189;DHT22;9219;50.396;8.546;2022-07-12T01:56:39;17.90;99.90
18189;DHT22;9219;50.396;8.546;2022-07-12T02:04:19;18.10;99.90
18189;DHT22;9219;50.396;8.546;2022-07-12T02:06:47;17.90;99.90
18189;DHT22;9219;50.396;8.546;2022-07-12T02:09:15;17.80;99.90
18189;DHT22;9219;50.396;8.546;2022-07-12T02:11:44;17.70;99.90
18189;DHT22;9219;50.396;8.546;2022-07-12T02:14:12;17.40;99.90
18189;DHT22;9219;50.396;8.546;2022-07-12T02:16:39;17.30;99.90
18189;DHT22;9219;50.396;8.546;2022-07-12T02:19:07;17.30;99.90
18189;DHT22;9219;50.396;8.546;2022-07-12T02:26:44;17.40;99.90
18189;DHT22;9219;50.396;8.546;2022-07-12T02:29:12;17.50;99.90
18189;DHT22;9219;50.396;8.546;2022-07-12T02:31:39;17.50;99.90
18189;DHT22;9219;50.396;8.546;2022-07-12T02:34:07;17.40;99.90
18189;DHT22;9219;50.396;8.546;2022-07-12T02:36:35;17.50;99.90
18189;DHT22;9219;50.396;8.546;2022-07-12T02:39:03;17.70;99.90
18189;DHT22;9219;50.396;8.546;2022-07-12T02:41:31;17.60;99.90
18189;DHT22;9219;50.396;8.546;2022-07-12T02:46:54;17.60;99.90
18189;DHT22;9219;50.396;8.546;2022-07-12T02:49:22;17.70;99.90
18189;DHT22;9219;50.396;8.546;2022-07-12T02:51:50;17.80;99.90
18189;DHT22;9219;50.396;8.546;2022-07-12T02:54:17;17.70;99.90
18189;DHT22;9219;50.396;8.546;2022-07-12T02:56:45;17.80;99.90
18189;DHT22;9219;50.396;8.546;2022-07-12T02:59:13;18.00;99.90
18189;DHT22;9219;50.396;8.546;2022-07-12T03:01:40;17.80;99.90
18189;DHT22;9219;50.396;8.546;2022-07-12T03:07:06;17.80;99.90
18189;DHT22;9219;50.396;8.546;2022-07-12T03:09:34;17.70;99.90
18189;DHT22;9219;50.396;8.546;2022-07-12T03:12:02;17.60;99.90
18189;DHT22;9219;50.396;8.546;2022-07-12T03:14:30;17.80;99.90
18189;DHT22;9219;50.396;8.546;2022-07-12T03:16:57;17.60;99.90
18189;DHT22;9219;50.396;8.546;2022-07-12T03:19:25;17.70;99.90
18189;DHT22;9219;50.396;8.546;2022-07-12T03:21:52;17.70;99.90
18189;DHT22;9219;50.396;8.546;2022-07-12T03:27:16;17.70;99.90
18189;DHT22;9219;50.396;8.546;2022-07-12T03:29:43;17.70;99.90
18189;DHT22;9219;50.396;8.546;2022-07-12T03:32:10;17.70;99.90
18189;DHT22;9219;50.396;8.546;2022-07-12T03:34:38;17.60;99.90
18189;DHT22;9219;50.396;8.546;2022-07-12T03:37:05;17.60;99.90
18189;DHT22;9219;50.396;8.546;2022-07-12T03:39:32;17.40;99.90
18189;DHT22;9219;50.396;8.546;2022-07-12T03:42:01;17.40;99.90
18189;DHT22;9219;50.396;8.546;2022-07-12T03:44:30;17.40;99.90
18189;DHT22;9219;50.396;8.546;2022-07-12T03:49:50;17.30;99.90
18189;DHT22;9219;50.396;8.546;2022-07-12T03:52:19;17.20;99.90
18189;DHT22;9219;50.396;8.546;2022-07-12T03:54:46;17.30;99.90
18189;DHT22;9219;50.396;8.546;2022-07-12T03:57:14;17.30;99.90
18189;DHT22;9219;50.396;8.546;2022-07-12T03:59:41;17.40;99.90
18189;DHT22;9219;50.396;8.546;2022-07-12T04:02:09;17.30;99.90
18189;DHT22;9219;50.396;8.546;2022-07-12T04:04:37;17.30;99.90
18189;DHT22;9219;50.396;8.546;2022-07-12T04:10:18;17.30;99.90
18189;DHT22;9219;50.396;8.546;2022-07-12T04:12:46;17.20;99.90
18189;DHT22;9219;50.396;8.546;2022-07-12T04:15:13;17.20;99.90
18189;DHT22;9219;50.396;8.546;2022-07-12T04:17:41;17.30;99.90
18189;DHT22;9219;50.396;8.546;2022-07-12T04:20:09;17.30;99.90
18189;DHT22;9219;50.396;8.546;2022-07-12T04:22:37;17.20;99.90
18189;DHT22;9219;50.396;8.546;2022-07-12T04:25:06;17.10;99.90
18189;DHT22;9219;50.396;8.546;2022-07-12T04:32:39;17.00;99.90
18189;DHT22;9219;50.396;8.546;2022-07-12T04:35:07;17.00;99.90
18189;DHT22;9219;50.396;8.546;2022-07-12T04:37:34;17.00;99.90
18189;DHT22;9219;50.396;8.546;2022-07-12T04:40:03;17.10;99.90
18189;DHT22;9219;50.396;8.546;2022-07-12T04:42:30;17.10;99.90
18189;DHT22;9219;50.396;8.546;2022-07-12T04:44:57;17.20;99.90
18189;DHT22;9219;50.396;8.546;2022-07-12T04:47:26;17.20;99.90
18189;DHT22;9219;50.396;8.546;2022-07-12T04:52:33;17.10;99.90
18189;DHT22;9219;50.396;8.546;2022-07-12T04:55:01;17.00;99.90
18189;DHT22;9219;50.396;8.546;2022-07-12T04:57:28;17.20;99.90
18189;DHT22;9219;50.396;8.546;2022-07-12T04:59:55;17.00;99.90
18189;DHT22;9219;50.396;8.546;2022-07-12T05:02:23;17.10;99.90
18189;DHT22;9219;50.396;8.546;2022-07-12T05:04:51;17.10;99.90
18189;DHT22;9219;50.396;8.546;2022-07-12T05:07:18;17.20;99.90
18189;DHT22;9219;50.396;8.546;2022-07-12T05:09:47;17.20;99.90
18189;DHT22;9219;50.396;8.546;2022-07-12T05:17:16;17.00;99.90
18189;DHT22;9219;50.396;8.546;2022-07-12T05:19:46;17.10;99.90
18189;DHT22;9219;50.396;8.546;2022-07-12T05:22:14;17.20;99.90
18189;DHT22;9219;50.396;8.546;2022-07-12T05:24:42;17.00;99.90
18189;DHT22;9219;50.396;8.546;2022-07-12T05:27:09;17.10;99.90
18189;DHT22;9219;50.396;8.546;2022-07-12T05:29:37;17.00;99.90
18189;DHT22;9219;50.396;8.546;2022-07-12T05:32:05;17.10;99.90
18189;DHT22;9219;50.396;8.546;2022-07-12T05:34:37;17.10;99.90
18189;DHT22;9219;50.396;8.546;2022-07-12T05:42:10;17.20;99.90
18189;DHT22;9219;50.396;8.546;2022-07-12T05:44:38;16.90;99.90
18189;DHT22;9219;50.396;8.546;2022-07-12T05:47:06;16.80;99.90
18189;DHT22;9219;50.396;8.546;2022-07-12T05:49:34;17.00;99.90
18189;DHT22;9219;50.396;8.546;2022-07-12T05:52:02;16.70;99.90
18189;DHT22;9219;50.396;8.546;2022-07-12T05:54:47;16.50;99.90
18189;DHT22;9219;50.396;8.546;2022-07-12T05:57:16;16.40;99.90
18189;DHT22;9219;50.396;8.546;2022-07-12T06:04:51;16.50;99.90
18189;DHT22;9219;50.396;8.546;2022-07-12T06:07:19;16.80;99.90
18189;DHT22;9219;50.396;8.546;2022-07-12T06:09:47;16.80;99.90
18189;DHT22;9219;50.396;8.546;2022-07-12T06:12:14;16.90;99.90
18189;DHT22;9219;50.396;8.546;2022-07-12T06:14:42;16.90;99.90
18189;DHT22;9219;50.396;8.546;2022-07-12T06:17:12;16.80;99.90
18189;DHT22;9219;50.396;8.546;2022-07-12T06:19:40;16.90;99.90
18189;DHT22;9219;50.396;8.546;2022-07-12T06:29:35;17.30;99.90
18189;DHT22;9219;50.396;8.546;2022-07-12T06:32:03;17.50;99.90
18189;DHT22;9219;50.396;8.546;2022-07-12T06:34:31;17.70;99.90
18189;DHT22;9219;50.396;8.546;2022-07-12T06:36:58;17.50;99.90
18189;DHT22;9219;50.396;8.546;2022-07-12T06:39:26;17.60;99.90
18189;DHT22;9219;50.396;8.546;2022-07-12T06:41:54;17.70;99.90
18189;DHT22;9219;50.396;8.546;2022-07-12T06:44:21;17.90;99.90
18189;DHT22;9219;50.396;8.546;2022-07-12T06:46:50;18.10;99.90
18189;DHT22;9219;50.396;8.546;2022-07-12T06:55:15;18.20;99.90
18189;DHT22;9219;50.396;8.546;2022-07-12T06:57:50;17.90;99.90
18189;DHT22;9219;50.396;8.546;2022-07-12T07:00:18;17.80;99.90
18189;DHT22;9219;50.396;8.546;2022-07-12T07:02:45;17.90;99.90
18189;DHT22;9219;50.396;8.546;2022-07-12T07:05:14;18.10;99.90
18189;DHT22;9219;50.396;8.546;2022-07-12T07:07:44;18.10;99.90
18189;DHT22;9219;50.396;8.546;2022-07-12T07:10:12;18.30;99.90
18189;DHT22;9219;50.396;8.546;2022-07-12T07:17:45;18.20;99.90
18189;DHT22;9219;50.396;8.546;2022-07-12T07:20:13;18.70;99.90
18189;DHT22;9219;50.396;8.546;2022-07-12T07:22:41;18.80;99.90
18189;DHT22;9219;50.396;8.546;2022-07-12T07:25:09;18.90;99.90
18189;DHT22;9219;50.396;8.546;2022-07-12T07:27:36;18.60;99.90
18189;DHT22;9219;50.396;8.546;2022-07-12T07:30:06;18.40;99.90
18189;DHT22;9219;50.396;8.546;2022-07-12T07:32:52;18.90;99.90
18189;DHT22;9219;50.396;8.546;2022-07-12T07:38:08;19.40;99.90
18189;DHT22;9219;50.396;8.546;2022-07-12T07:40:36;19.50;99.90
18189;DHT22;9219;50.396;8.546;2022-07-12T07:43:03;19.10;99.90
18189;DHT22;9219;50.396;8.546;2022-07-12T07:45:31;19.30;99.90
18189;DHT22;9219;50.396;8.546;2022-07-12T07:47:58;18.70;99.90
18189;DHT22;9219;50.396;8.546;2022-07-12T07:50:46;19.20;99.90
18189;DHT22;9219;50.396;8.546;2022-07-12T07:53:14;19.50;99.90
18189;DHT22;9219;50.396;8.546;2022-07-12T08:00:43;19.70;99.90
18189;DHT22;9219;50.396;8.546;2022-07-12T08:03:12;19.90;99.90
18189;DHT22;9219;50.396;8.546;2022-07-12T08:05:39;20.30;99.90
18189;DHT22;9219;50.396;8.546;2022-07-12T08:08:07;20.10;99.90
18189;DHT22;9219;50.396;8.546;2022-07-12T08:10:36;19.80;99.90
18189;DHT22;9219;50.396;8.546;2022-07-12T08:13:03;19.70;99.90
18189;DHT22;9219;50.396;8.546;2022-07-12T08:15:31;19.40;99.90
18189;DHT22;9219;50.396;8.546;2022-07-12T08:18:02;19.40;99.90
18189;DHT22;9219;50.396;8.546;2022-07-12T08:25:40;19.70;99.90
18189;DHT22;9219;50.396;8.546;2022-07-12T08:28:08;20.10;99.90
18189;DHT22;9219;50.396;8.546;2022-07-12T08:30:36;20.20;99.90
18189;DHT22;9219;50.396;8.546;2022-07-12T08:33:12;20.30;99.90
18189;DHT22;9219;50.396;8.546;2022-07-12T08:35:39;20.80;99.90
18189;DHT22;9219;50.396;8.546;2022-07-12T08:38:07;21.10;99.90
18189;DHT22;9219;50.396;8.546;2022-07-12T08:40:34;21.10;99.90
18189;DHT22;9219;50.396;8.546;2022-07-12T08:43:03;21.60;99.90
18189;DHT22;9219;50.396;8.546;2022-07-12T08:51:06;22.30;99.90
18189;DHT22;9219;50.396;8.546;2022-07-12T08:53:38;22.00;99.90
18189;DHT22;9219;50.396;8.546;2022-07-12T08:56:06;22.30;99.90
18189;DHT22;9219;50.396;8.546;2022-07-12T08:58:34;22.90;99.90
18189;DHT22;9219;50.396;8.546;2022-07-12T09:01:01;23.10;99.90
18189;DHT22;9219;50.396;8.546;2022-07-12T09:03:29;22.90;99.90
18189;DHT22;9219;50.396;8.546;2022-07-12T09:05:58;22.80;99.90
18189;DHT22;9219;50.396;8.546;2022-07-12T09:13:50;22.50;99.90
18189;DHT22;9219;50.396;8.546;2022-07-12T09:16:31;22.10;99.90
18189;DHT22;9219;50.396;8.546;2022-07-12T09:19:17;22.30;99.90
18189;DHT22;9219;50.396;8.546;2022-07-12T09:21:57;23.20;99.90
18189;DHT22;9219;50.396;8.546;2022-07-12T09:29:12;23.70;99.90
18189;DHT22;9219;50.396;8.546;2022-07-12T09:31:47;24.40;99.90
18189;DHT22;9219;50.396;8.546;2022-07-12T09:34:36;23.90;99.90
18189;DHT22;9219;50.396;8.546;2022-07-12T09:37:25;23.70;99.90
18189;DHT22;9219;50.396;8.546;2022-07-12T09:45:13;23.70;99.90
18189;DHT22;9219;50.396;8.546;2022-07-12T09:47:41;23.80;99.90
18189;DHT22;9219;50.396;8.546;2022-07-12T09:50:24;23.90;99.90
18189;DHT22;9219;50.396;8.546;2022-07-12T09:52:54;24.10;99.90
18189;DHT22;9219;50.396;8.546;2022-07-12T09:55:24;24.60;99.90
18189;DHT22;9219;50.396;8.546;2022-07-12T09:57:55;24.50;99.90
18189;DHT22;9219;50.396;8.546;2022-07-12T10:00:24;24.70;99.90
18189;DHT22;9219;50.396;8.546;2022-07-12T10:02:53;25.30;99.90
18189;DHT22;9219;50.396;8.546;2022-07-12T10:10:36;25.40;99.90
18189;DHT22;9219;50.396;8.546;2022-07-12T10:13:05;25.20;99.90
18189;DHT22;9219;50.396;8.546;2022-07-12T10:15:33;25.40;99.90
18189;DHT22;9219;50.396;8.546;2022-07-12T10:18:02;25.80;99.90
18189;DHT22;9219;50.396;8.546;2022-07-12T10:20:32;25.80;99.90
18189;DHT22;9219;50.396;8.546;2022-07-12T10:23:27;25.50;99.90
18189;DHT22;9219;50.396;8.546;2022-07-12T10:25:55;25.00;99.90
18189;DHT22;9219;50.396;8.546;2022-07-12T10:34:11;25.40;99.90
18189;DHT22;9219;50.396;8.546;2022-07-12T10:37:10;26.20;99.90
18189;DHT22;9219;50.396;8.546;2022-07-12T10:40:11;26.50;99.90
18189;DHT22;9219;50.396;8.546;2022-07-12T10:42:39;26.20;99.90
18189;DHT22;9219;50.396;8.546;2022-07-12T10:45:12;26.00;99.90
18189;DHT22;9219;50.396;8.546;2022-07-12T10:47:58;26.30;99.90
18189;DHT22;9219;50.396;8.546;2022-07-12T10:58:55;26.30;99.90
18189;DHT22;9219;50.396;8.546;2022-07-12T11:01:25;26.60;99.90
18189;DHT22;9219;50.396;8.546;2022-07-12T11:03:55;26.60;99.90
18189;DHT22;9219;50.396;8.546;2022-07-12T11:06:24;26.70;99.90
18189;DHT22;9219;50.396;8.546;2022-07-12T11:08:58;27.00;99.90
18189;DHT22;9219;50.396;8.546;2022-07-12T11:11:27;26.90;99.90
18189;DHT22;9219;50.396;8.546;2022-07-12T11:13:57;26.90;99.90
18189;DHT22;9219;50.396;8.546;2022-07-12T11:21:26;27.30;99.90
18189;DHT22;9219;50.396;8.546;2022-07-12T11:23:54;26.80;99.90
18189;DHT22;9219;50.396;8.546;2022-07-12T11:26:22;27.30;99.90
18189;DHT22;9219;50.396;8.546;2022-07-12T11:28:50;26.80;99.90
18189;DHT22;9219;50.396;8.546;2022-07-12T11:31:18;26.30;99.90
18189;DHT22;9219;50.396;8.546;2022-07-12T11:33:48;26.70;99.90
18189;DHT22;9219;50.396;8.546;2022-07-12T11:36:17;26.60;99.90
18189;DHT22;9219;50.396;8.546;2022-07-12T11:43:40;28.40;99.90
18189;DHT22;9219;50.396;8.546;2022-07-12T11:46:09;28.30;99.90
18189;DHT22;9219;50.396;8.546;2022-07-12T11:48:37;29.20;99.90
18189;DHT22;9219;50.396;8.546;2022-07-12T11:51:08;29.20;99.90
18189;DHT22;9219;50.396;8.546;2022-07-12T11:53:37;28.70;99.90
18189;DHT22;9219;50.396;8.546;2022-07-12T11:56:07;29.60;99.90
18189;DHT22;9219;50.396;8.546;2022-07-12T11:58:36;29.50;99.90
18189;DHT22;9219;50.396;8.546;2022-07-12T12:04:11;28.60;99.90
18189;DHT22;9219;50.396;8.546;2022-07-12T12:06:38;29.40;99.90
18189;DHT22;9219;50.396;8.546;2022-07-12T12:09:06;28.70;99.90
18189;DHT22;9219;50.396;8.546;2022-07-12T12:11:34;28.30;99.90
18189;DHT22;9219;50.396;8.546;2022-07-12T12:14:02;28.50;99.90
18189;DHT22;9219;50.396;8.546;2022-07-12T12:16:33;27.80;99.90
18189;DHT22;9219;50.396;8.546;2022-07-12T12:19:01;28.60;99.90
18189;DHT22;9219;50.396;8.546;2022-07-12T12:21:34;28.70;99.90
18189;DHT22;9219;50.396;8.546;2022-07-12T12:29:41;29.50;99.90
18189;DHT22;9219;50.396;8.546;2022-07-12T12:32:17;29.30;99.90
18189;DHT22;9219;50.396;8.546;2022-07-12T12:35:05;29.50;99.90
18189;DHT22;9219;50.396;8.546;2022-07-12T12:37:34;30.20;99.90
18189;DHT22;9219;50.396;8.546;2022-07-12T12:40:01;29.80;99.90
18189;DHT22;9219;50.396;8.546;2022-07-12T12:42:29;30.50;99.90
18189;DHT22;9219;50.396;8.546;2022-07-12T12:44:58;31.20;99.90
18189;DHT22;9219;50.396;8.546;2022-07-12T12:52:47;32.00;99.80
18189;DHT22;9219;50.396;8.546;2022-07-12T12:55:16;30.50;99.90
18189;DHT22;9219;50.396;8.546;2022-07-12T12:57:44;30.30;99.90
18189;DHT22;9219;50.396;8.546;2022-07-12T13:00:12;30.10;99.90
18189;DHT22;9219;50.396;8.546;2022-07-12T13:02:40;30.40;99.50
18189;DHT22;9219;50.396;8.546;2022-07-12T13:05:08;30.20;99.70
18189;DHT22;9219;50.396;8.546;2022-07-12T13:07:36;29.10;99.90
18189;DHT22;9219;50.396;8.546;2022-07-12T13:13:06;29.10;99.90
18189;DHT22;9219;50.396;8.546;2022-07-12T13:15:35;29.90;99.90
18189;DHT22;9219;50.396;8.546;2022-07-12T13:18:03;30.10;99.90
18189;DHT22;9219;50.396;8.546;2022-07-12T13:20:31;29.20;99.70
18189;DHT22;9219;50.396;8.546;2022-07-12T13:23:00;29.40;98.20
18189;DHT22;9219;50.396;8.546;2022-07-12T13:25:27;29.50;98.10
18189;DHT22;9219;50.396;8.546;2022-07-12T13:27:57;29.80;97.60
18189;DHT22;9219;50.396;8.546;2022-07-12T13:36:20;29.50;98.50
18189;DHT22;9219;50.396;8.546;2022-07-12T13:38:49;29.20;98.10
18189;DHT22;9219;50.396;8.546;2022-07-12T13:41:16;28.90;97.90
18189;DHT22;9219;50.396;8.546;2022-07-12T13:43:45;28.70;98.80
18189;DHT22;9219;50.396;8.546;2022-07-12T13:46:14;28.90;97.90
18189;DHT22;9219;50.396;8.546;2022-07-12T13:48:41;28.80;97.80
18189;DHT22;9219;50.396;8.546;2022-07-12T13:51:11;28.70;97.50
18189;DHT22;9219;50.396;8.546;2022-07-12T13:53:58;28.90;96.80
18189;DHT22;9219;50.396;8.546;2022-07-12T14:01:31;28.40;99.00
18189;DHT22;9219;50.396;8.546;2022-07-12T14:04:00;28.00;98.30
18189;DHT22;9219;50.396;8.546;2022-07-12T14:06:28;27.80;99.40
18189;DHT22;9219;50.396;8.546;2022-07-12T14:08:57;27.60;99.40
18189;DHT22;9219;50.396;8.546;2022-07-12T14:11:24;27.90;99.20
18189;DHT22;9219;50.396;8.546;2022-07-12T14:13:52;28.40;98.90
18189;DHT22;9219;50.396;8.546;2022-07-12T14:16:20;28.60;97.30
18189;DHT22;9219;50.396;8.546;2022-07-12T14:27:06;29.70;95.50
18189;DHT22;9219;50.396;8.546;2022-07-12T14:29:37;29.30;97.10
18189;DHT22;9219;50.396;8.546;2022-07-12T14:32:05;29.20;95.30
18189;DHT22;9219;50.396;8.546;2022-07-12T14:34:33;28.80;95.50
18189;DHT22;9219;50.396;8.546;2022-07-12T14:37:00;29.00;96.10
18189;DHT22;9219;50.396;8.546;2022-07-12T14:39:28;28.80;96.10
18189;DHT22;9219;50.396;8.546;2022-07-12T14:41:56;28.70;96.50
18189;DHT22;9219;50.396;8.546;2022-07-12T14:49:34;28.70;96.60
18189;DHT22;9219;50.396;8.546;2022-07-12T14:52:02;28.30;96.70
18189;DHT22;9219;50.396;8.546;2022-07-12T14:54:29;28.40;97.00
18189;DHT22;9219;50.396;8.546;2022-07-12T14:56:57;28.40;96.70
18189;DHT22;9219;50.396;8.546;2022-07-12T14:59:25;28.20;95.90
18189;DHT22;9219;50.396;8.546;2022-07-12T15:01:53;27.90;96.30
18189;DHT22;9219;50.396;8.546;2022-07-12T15:04:21;28.00;97.60
18189;DHT22;9219;50.396;8.546;2022-07-12T15:06:51;28.00;97.30
18189;DHT22;9219;50.396;8.546;2022-07-12T15:14:34;28.00;97.40
18189;DHT22;9219;50.396;8.546;2022-07-12T15:17:02;28.10;97.60
18189;DHT22;9219;50.396;8.546;2022-07-12T15:19:31;27.70;98.30
18189;DHT22;9219;50.396;8.546;2022-07-12T15:21:58;28.10;97.70
18189;DHT22;9219;50.396;8.546;2022-07-12T15:24:27;28.20;97.70
18189;DHT22;9219;50.396;8.546;2022-07-12T15:26:55;28.00;98.50
18189;DHT22;9219;50.396;8.546;2022-07-12T15:29:24;27.50;98.60
18189;DHT22;9219;50.396;8.546;2022-07-12T15:34:32;28.00;98.10
18189;DHT22;9219;50.396;8.546;2022-07-12T15:36:59;28.10;98.60
18189;DHT22;9219;50.396;8.546;2022-07-12T15:39:27;28.00;99.20
18189;DHT22;9219;50.396;8.546;2022-07-12T15:41:55;28.00;99.90
18189;DHT22;9219;50.396;8.546;2022-07-12T15:44:23;28.20;99.40
18189;DHT22;9219;50.396;8.546;2022-07-12T15:46:51;28.20;99.80
18189;DHT22;9219;50.396;8.546;2022-07-12T15:49:19;28.30;99.80
18189;DHT22;9219;50.396;8.546;2022-07-12T15:57:41;28.00;99.90
18189;DHT22;9219;50.396;8.546;2022-07-12T16:00:11;28.00;99.90
18189;DHT22;9219;50.396;8.546;2022-07-12T16:02:40;27.70;99.90
18189;DHT22;9219;50.396;8.546;2022-07-12T16:05:10;27.70;99.90
18189;DHT22;9219;50.396;8.546;2022-07-12T16:07:39;27.90;99.90
18189;DHT22;9219;50.396;8.546;2022-07-12T16:10:07;27.60;99.80
18189;DHT22;9219;50.396;8.546;2022-07-12T16:12:37;27.20;99.90
18189;DHT22;9219;50.396;8.546;2022-07-12T16:15:11;27.40;99.90
18189;DHT22;9219;50.396;8.546;2022-07-12T16:20:48;27.90;99.90
18189;DHT22;9219;50.396;8.546;2022-07-12T16:23:16;28.30;98.20
18189;DHT22;9219;50.396;8.546;2022-07-12T16:25:44;28.20;99.00
18189;DHT22;9219;50.396;8.546;2022-07-12T16:28:12;27.80;99.00
18189;DHT22;9219;50.396;8.546;2022-07-12T16:30:40;27.40;99.30
18189;DHT22;9219;50.396;8.546;2022-07-12T16:33:08;27.20;99.90
18189;DHT22;9219;50.396;8.546;2022-07-12T16:35:37;27.50;99.90
18189;DHT22;9219;50.396;8.546;2022-07-12T16:42:46;27.60;99.90
18189;DHT22;9219;50.396;8.546;2022-07-12T16:45:14;27.10;99.90
18189;DHT22;9219;50.396;8.546;2022-07-12T16:47:42;26.90;99.90
18189;DHT22;9219;50.396;8.546;2022-07-12T16:50:10;27.40;99.90
18189;DHT22;9219;50.396;8.546;2022-07-12T16:52:38;27.90;99.90
18189;DHT22;9219;50.396;8.546;2022-07-12T16:55:07;28.00;99.90
18189;DHT22;9219;50.396;8.546;2022-07-12T16:57:35;28.10;99.90
18189;DHT22;9219;50.396;8.546;2022-07-12T17:00:08;28.10;99.90
18189;DHT22;9219;50.396;8.546;2022-07-12T17:07:48;28.30;99.90
18189;DHT22;9219;50.396;8.546;2022-07-12T17:10:16;28.50;99.90
18189;DHT22;9219;50.396;8.546;2022-07-12T17:12:44;28.50;99.90
18189;DHT22;9219;50.396;8.546;2022-07-12T17:15:12;28.40;99.90
18189;DHT22;9219;50.396;8.546;2022-07-12T17:17:39;28.50;99.90
18189;DHT22;9219;50.396;8.546;2022-07-12T17:20:07;28.00;99.90
18189;DHT22;9219;50.396;8.546;2022-07-12T17:22:35;28.20;99.90
18189;DHT22;9219;50.396;8.546;2022-07-12T17:30:10;28.00;99.90
18189;DHT22;9219;50.396;8.546;2022-07-12T17:33:04;28.00;99.90
18189;DHT22;9219;50.396;8.546;2022-07-12T17:35:51;27.70;99.90
18189;DHT22;9219;50.396;8.546;2022-07-12T17:42:16;27.60;99.90
18189;DHT22;9219;50.396;8.546;2022-07-12T17:44:47;27.70;99.90
18189;DHT22;9219;50.396;8.546;2022-07-12T17:47:15;27.50;99.90
18189;DHT22;9219;50.396;8.546;2022-07-12T17:50:18;27.30;99.90
18189;DHT22;9219;50.396;8.546;2022-07-12T17:59:52;27.70;99.90
18189;DHT22;9219;50.396;8.546;2022-07-12T18:02:41;27.60;99.90
18189;DHT22;9219;50.396;8.546;2022-07-12T18:10:42;27.40;99.90
18189;DHT22;9219;50.396;8.546;2022-07-12T18:13:11;27.50;99.90
18189;DHT22;9219;50.396;8.546;2022-07-12T18:15:56;27.20;99.90
18189;DHT22;9219;50.396;8.546;2022-07-12T18:18:24;27.10;99.90
18189;DHT22;9219;50.396;8.546;2022-07-12T18:20:52;27.00;99.90
18189;DHT22;9219;50.396;8.546;2022-07-12T18:23:21;26.90;99.90
18189;DHT22;9219;50.396;8.546;2022-07-12T18:25:49;26.80;99.90
18189;DHT22;9219;50.396;8.546;2022-07-12T18:28:17;26.90;99.90
18189;DHT22;9219;50.396;8.546;2022-07-12T18:36:06;26.50;99.90
18189;DHT22;9219;50.396;8.546;2022-07-12T18:38:34;26.10;99.90
18189;DHT22;9219;50.396;8.546;2022-07-12T18:41:01;26.00;99.90
18189;DHT22;9219;50.396;8.546;2022-07-12T18:43:30;25.90;99.90
18189;DHT22;9219;50.396;8.546;2022-07-12T18:46:00;25.90;99.90
18189;DHT22;9219;50.396;8.546;2022-07-12T18:48:27;25.80;99.90
18189;DHT22;9219;50.396;8.546;2022-07-12T18:51:00;25.70;99.90
18189;DHT22;9219;50.396;8.546;2022-07-12T18:53:29;25.60;99.90
18189;DHT22;9219;50.396;8.546;2022-07-12T19:01:15;25.50;99.90
18189;DHT22;9219;50.396;8.546;2022-07-12T19:03:43;25.40;99.90
18189;DHT22;9219;50.396;8.546;2022-07-12T19:06:13;25.50;99.90
18189;DHT22;9219;50.396;8.546;2022-07-12T19:08:42;25.50;99.90
18189;DHT22;9219;50.396;8.546;2022-07-12T19:11:10;25.30;99.90
18189;DHT22;9219;50.396;8.546;2022-07-12T19:13:38;25.40;99.90
18189;DHT22;9219;50.396;8.546;2022-07-12T19:16:06;25.30;99.90
18189;DHT22;9219;50.396;8.546;2022-07-12T19:21:44;25.10;99.90
18189;DHT22;9219;50.396;8.546;2022-07-12T19:24:12;24.90;99.90
18189;DHT22;9219;50.396;8.546;2022-07-12T19:26:41;24.90;99.90
18189;DHT22;9219;50.396;8.546;2022-07-12T19:29:09;25.00;99.90
18189;DHT22;9219;50.396;8.546;2022-07-12T19:31:36;25.10;99.90
18189;DHT22;9219;50.396;8.546;2022-07-12T19:34:08;25.10;99.90
18189;DHT22;9219;50.396;8.546;2022-07-12T19:36:37;25.00;99.90
18189;DHT22;9219;50.396;8.546;2022-07-12T19:42:20;25.00;99.90
18189;DHT22;9219;50.396;8.546;2022-07-12T19:44:48;25.10;99.90
18189;DHT22;9219;50.396;8.546;2022-07-12T19:47:16;25.10;99.90
18189;DHT22;9219;50.396;8.546;2022-07-12T19:49:43;24.90;99.90
18189;DHT22;9219;50.396;8.546;2022-07-12T19:52:11;24.90;99.90
18189;DHT22;9219;50.396;8.546;2022-07-12T19:54:39;24.80;99.90
18189;DHT22;9219;50.396;8.546;2022-07-12T19:57:07;24.70;99.90
18189;DHT22;9219;50.396;8.546;2022-07-12T20:07:47;24.50;99.90
18189;DHT22;9219;50.396;8.546;2022-07-12T20:10:15;24.60;99.90
18189;DHT22;9219;50.396;8.546;2022-07-12T20:12:43;24.60;99.90
18189;DHT22;9219;50.396;8.546;2022-07-12T20:15:11;24.50;99.90
18189;DHT22;9219;50.396;8.546;2022-07-12T20:17:38;24.50;99.90
18189;DHT22;9219;50.396;8.546;2022-07-12T20:20:07;24.40;99.90
18189;DHT22;9219;50.396;8.546;2022-07-12T20:22:35;24.30;99.90
18189;DHT22;9219;50.396;8.546;2022-07-12T20:25:06;24.10;99.90